sensor_id;sensor_type;location;lat;lon;timestamp;temperature;humidity
12015;DHT22;6066;48.138;16.402;2023-04-24T00:01:20;12.90;99.90
12015;DHT22;6066;48.138;16.402;2023-04-24T00:03:47;12.80;99.90
12015;DHT22;6066;48.138;16.402;2023-04-24T00:06:13;12.80;99.90
12015;DHT22;6066;48.138;16.402;2023-04-24T00:08:42;12.70;99.90
12015;DHT22;6066;48.138;16.402;2023-04-24T00:11:08;12.70;99.90
12015;DHT22;6066;48.138;16.402;2023-04-24T00:13:35;12.60;99.90
12015;DHT22;6066;48.138;16.402;2023-04-24T00:16:03;12.60;99.90
12015;DHT22;6066;48.138;16.402;2023-04-24T00:18:30;12.60;99.90
12015;DHT22;6066;48.138;16.402;2023-04-24T00:20:57;12.50;99.90
12015;DHT22;6066;48.138;16.402;2023-04-24T00:23:24;12.60;99.90
12015;DHT22;6066;48.138;16.402;2023-04-24T00:25:50;12.60;99.90
12015;DHT22;6066;48.138;16.402;2023-04-24T00:28:17;12.60;99.90
12015;DHT22;6066;48.138;16.402;2023-04-24T00:30:43;12.60;99.90
12015;DHT22;6066;48.138;16.402;2023-04-24T00:33:12;12.60;99.90
12015;DHT22;6066;48.138;16.402;2023-04-24T00:35:38;12.60;99.90
12015;DHT22;6066;48.138;16.402;2023-04-24T00:38:05;12.60;99.90
12015;DHT22;6066;48.138;16.402;2023-04-24T00:40:32;12.60;99.90
12015;DHT22;6066;48.138;16.402;2023-04-24T00:43:01;12.60;99.90
12015;DHT22;6066;48.138;16.402;2023-04-24T00:45:27;12.60;99.90
12015;DHT22;6066;48.138;16.402;2023-04-24T00:47:56;12.60;99.90
12015;DHT22;6066;48.138;16.402;2023-04-24T00:50:25;12.70;99.90
12015;DHT22;6066;48.138;16.402;2023-04-24T00:52:51;12.70;99.90
12015;DHT22;6066;48.138;16.402;2023-04-24T00:55:18;12.70;99.90
12015;DHT22;6066;48.138;16.402;2023-04-24T00:57:45;12.70;99.90
12015;DHT22;6066;48.138;16.402;2023-04-24T01:00:13;12.70;99.90
12015;DHT22;6066;48.138;16.402;2023-04-24T01:02:40;12.70;99.90
12015;DHT22;6066;48.138;16.402;2023-04-24T01:05:09;12.60;99.90
12015;DHT22;6066;48.138;16.402;2023-04-24T01:07:38;12.60;99.90
12015;DHT22;6066;48.138;16.402;2023-04-24T01:10:05;12.50;99.90
12015;DHT22;6066;48.138;16.402;2023-04-24T01:12:33;12.50;99.90
12015;DHT22;6066;48.138;16.402;2023-04-24T01:14:59;12.40;99.90
12015;DHT22;6066;48.138;16.402;2023-04-24T01:17:27;12.30;99.90
12015;DHT22;6066;48.138;16.402;2023-04-24T01:19:53;12.20;99.90
12015;DHT22;6066;48.138;16.402;2023-04-24T01:22:23;12.10;99.90
12015;DHT22;6066;48.138;16.402;2023-04-24T01:24:50;12.10;99.90
12015;DHT22;6066;48.138;16.402;2023-04-24T01:27:17;12.10;99.90
12015;DHT22;6066;48.138;16.402;2023-04-24T01:29:44;12.00;99.90
12015;DHT22;6066;48.138;16.402;2023-04-24T01:32:10;11.90;99.90
12015;DHT22;6066;48.138;16.402;2023-04-24T01:34:37;11.90;99.90
12015;DHT22;6066;48.138;16.402;2023-04-24T01:37:04;11.90;99.90
12015;DHT22;6066;48.138;16.402;2023-04-24T01:39:32;11.80;99.90
12015;DHT22;6066;48.138;16.402;2023-04-24T01:41:59;11.70;99.90
12015;DHT22;6066;48.138;16.402;2023-04-24T01:44:27;11.70;99.90
12015;DHT22;6066;48.138;16.402;2023-04-24T01:46:54;11.60;99.90
12015;DHT22;6066;48.138;16.402;2023-04-24T01:49:21;11.60;99.90
12015;DHT22;6066;48.138;16.402;2023-04-24T01:51:48;11.50;99.90
12015;DHT22;6066;48.138;16.402;2023-04-24T01:54:14;11.50;99.90
12015;DHT22;6066;48.138;16.402;2023-04-24T01:56:43;11.40;99.90
12015;DHT22;6066;48.138;16.402;2023-04-24T01:59:10;11.30;99.90
12015;DHT22;6066;48.138;16.402;2023-04-24T02:01:37;11.30;99.90
12015;DHT22;6066;48.138;16.402;2023-04-24T02:04:04;11.20;99.90
12015;DHT22;6066;48.138;16.402;2023-04-24T02:06:31;11.20;99.90
12015;DHT22;6066;48.138;16.402;2023-04-24T02:08:57;11.20;99.90
12015;DHT22;6066;48.138;16.402;2023-04-24T02:11:24;11.20;99.90
12015;DHT22;6066;48.138;16.402;2023-04-24T02:13:52;11.20;99.90
12015;DHT22;6066;48.138;16.402;2023-04-24T02:16:19;11.20;99.90
12015;DHT22;6066;48.138;16.402;2023-04-24T02:18:46;11.20;99.90
12015;DHT22;6066;48.138;16.402;2023-04-24T02:21:12;11.20;99.90
12015;DHT22;6066;48.138;16.402;2023-04-24T02:23:39;11.30;99.90
12015;DHT22;6066;48.138;16.402;2023-04-24T02:26:06;11.40;99.90
12015;DHT22;6066;48.138;16.402;2023-04-24T02:28:33;11.50;99.90
12015;DHT22;6066;48.138;16.402;2023-04-24T02:31:01;11.50;99.90
12015;DHT22;6066;48.138;16.402;2023-04-24T02:33:27;11.50;99.90
12015;DHT22;6066;48.138;16.402;2023-04-24T02:35:54;11.50;99.90
12015;DHT22;6066;48.138;16.402;2023-04-24T02:38:21;11.60;99.90
12015;DHT22;6066;48.138;16.402;2023-04-24T02:40:48;11.70;99.90
12015;DHT22;6066;48.138;16.402;2023-04-24T02:43:14;11.80;99.90
12015;DHT22;6066;48.138;16.402;2023-04-24T02:45:41;11.90;99.90
12015;DHT22;6066;48.138;16.402;2023-04-24T02:48:09;12.00;99.90
12015;DHT22;6066;48.138;16.402;2023-04-24T02:50:35;12.00;99.90
12015;DHT22;6066;48.138;16.402;2023-04-24T02:53:02;12.10;99.90
12015;DHT22;6066;48.138;16.402;2023-04-24T02:55:29;12.10;99.90
12015;DHT22;6066;48.138;16.402;2023-04-24T02:57:55;12.10;99.90
12015;DHT22;6066;48.138;16.402;2023-04-24T03:00:22;12.10;99.90
12015;DHT22;6066;48.138;16.402;2023-04-24T03:02:49;12.10;99.90
12015;DHT22;6066;48.138;16.402;2023-04-24T03:05:17;12.10;99.90
12015;DHT22;6066;48.138;16.402;2023-04-24T03:07:44;12.10;99.90
12015;DHT22;6066;48.138;16.402;2023-04-24T03:10:10;12.10;99.90
12015;DHT22;6066;48.138;16.402;2023-04-24T03:12:37;12.10;99.90
12015;DHT22;6066;48.138;16.402;2023-04-24T03:15:04;12.10;99.90
12015;DHT22;6066;48.138;16.402;2023-04-24T03:17:31;12.10;99.90
12015;DHT22;6066;48.138;16.402;2023-04-24T03:19:58;12.10;99.90
12015;DHT22;6066;48.138;16.402;2023-04-24T03:22:26;12.10;99.90
12015;DHT22;6066;48.138;16.402;2023-04-24T03:24:52;12.10;99.90
12015;DHT22;6066;48.138;16.402;2023-04-24T03:27:20;12.10;99.90
12015;DHT22;6066;48.138;16.402;2023-04-24T03:29:46;12.10;99.90
12015;DHT22;6066;48.138;16.402;2023-04-24T03:32:13;12.00;99.90
12015;DHT22;6066;48.138;16.402;2023-04-24T03:34:40;12.00;99.90
12015;DHT22;6066;48.138;16.402;2023-04-24T03:37:06;12.00;99.90
12015;DHT22;6066;48.138;16.402;2023-04-24T03:39:34;12.00;99.90
12015;DHT22;6066;48.138;16.402;2023-04-24T03:42:01;12.00;99.90
12015;DHT22;6066;48.138;16.402;2023-04-24T03:44:28;12.10;99.90
12015;DHT22;6066;48.138;16.402;2023-04-24T03:46:55;12.20;99.90
12015;DHT22;6066;48.138;16.402;2023-04-24T03:49:21;12.20;99.90
12015;DHT22;6066;48.138;16.402;2023-04-24T03:51:48;12.30;99.90
12015;DHT22;6066;48.138;16.402;2023-04-24T03:54:15;12.30;99.90
12015;DHT22;6066;48.138;16.402;2023-04-24T03:56:43;12.40;99.90
12015;DHT22;6066;48.138;16.402;2023-04-24T03:59:09;12.40;99.90
12015;DHT22;6066;48.138;16.402;2023-04-24T04:01:36;12.50;99.90
12015;DHT22;6066;48.138;16.402;2023-04-24T04:04:03;12.50;99.90
12015;DHT22;6066;48.138;16.402;2023-04-24T04:06:30;12.60;99.90
12015;DHT22;6066;48.138;16.402;2023-04-24T04:08:57;12.60;99.90
12015;DHT22;6066;48.138;16.402;2023-04-24T04:11:24;12.70;99.90
12015;DHT22;6066;48.138;16.402;2023-04-24T04:13:52;12.70;99.90
12015;DHT22;6066;48.138;16.402;2023-04-24T04:16:18;12.80;99.90
12015;DHT22;6066;48.138;16.402;2023-04-24T04:18:45;12.80;99.90
12015;DHT22;6066;48.138;16.402;2023-04-24T04:21:12;12.80;99.90
12015;DHT22;6066;48.138;16.402;2023-04-24T04:23:38;12.90;99.90
12015;DHT22;6066;48.138;16.402;2023-04-24T04:26:06;12.90;99.90
12015;DHT22;6066;48.138;16.402;2023-04-24T04:28:33;12.90;99.90
12015;DHT22;6066;48.138;16.402;2023-04-24T04:31:01;12.90;99.90
12015;DHT22;6066;48.138;16.402;2023-04-24T04:33:28;12.90;99.90
12015;DHT22;6066;48.138;16.402;2023-04-24T04:35:55;12.90;99.90
12015;DHT22;6066;48.138;16.402;2023-04-24T04:38:22;12.90;99.90
12015;DHT22;6066;48.138;16.402;2023-04-24T04:40:49;13.00;99.90
12015;DHT22;6066;48.138;16.402;2023-04-24T04:43:16;13.00;99.90
12015;DHT22;6066;48.138;16.402;2023-04-24T04:45:43;13.00;99.90
12015;DHT22;6066;48.138;16.402;2023-04-24T04:48:12;13.00;99.90
12015;DHT22;6066;48.138;16.402;2023-04-24T04:50:39;13.00;99.90
12015;DHT22;6066;48.138;16.402;2023-04-24T04:53:06;13.00;99.90
12015;DHT22;6066;48.138;16.402;2023-04-24T04:55:32;13.00;99.90
12015;DHT22;6066;48.138;16.402;2023-04-24T04:58:00;13.00;99.90
12015;DHT22;6066;48.138;16.402;2023-04-24T05:00:27;12.90;99.90
12015;DHT22;6066;48.138;16.402;2023-04-24T05:02:54;13.00;99.90
12015;DHT22;6066;48.138;16.402;2023-04-24T05:05:22;13.00;99.90
12015;DHT22;6066;48.138;16.402;2023-04-24T05:07:49;13.00;99.90
12015;DHT22;6066;48.138;16.402;2023-04-24T05:10:15;13.10;99.90
12015;DHT22;6066;48.138;16.402;2023-04-24T05:12:42;13.10;99.90
12015;DHT22;6066;48.138;16.402;2023-04-24T05:15:09;13.20;99.90
12015;DHT22;6066;48.138;16.402;2023-04-24T05:17:36;13.20;99.90
12015;DHT22;6066;48.138;16.402;2023-04-24T05:20:03;13.30;99.90
12015;DHT22;6066;48.138;16.402;2023-04-24T05:22:32;13.30;99.90
12015;DHT22;6066;48.138;16.402;2023-04-24T05:24:58;13.40;99.90
12015;DHT22;6066;48.138;16.402;2023-04-24T05:27:25;13.40;99.90
12015;DHT22;6066;48.138;16.402;2023-04-24T05:29:52;13.50;99.90
12015;DHT22;6066;48.138;16.402;2023-04-24T05:32:18;13.60;99.90
12015;DHT22;6066;48.138;16.402;2023-04-24T05:34:45;13.70;99.90
12015;DHT22;6066;48.138;16.402;2023-04-24T05:37:12;13.80;99.90
12015;DHT22;6066;48.138;16.402;2023-04-24T05:39:40;13.80;99.90
12015;DHT22;6066;48.138;16.402;2023-04-24T05:42:07;13.90;99.90
12015;DHT22;6066;48.138;16.402;2023-04-24T05:44:33;13.90;99.90
12015;DHT22;6066;48.138;16.402;2023-04-24T05:47:00;14.00;99.90
12015;DHT22;6066;48.138;16.402;2023-04-24T05:49:27;14.10;99.90
12015;DHT22;6066;48.138;16.402;2023-04-24T05:51:54;14.20;99.90
12015;DHT22;6066;48.138;16.402;2023-04-24T05:54:20;14.20;99.90
12015;DHT22;6066;48.138;16.402;2023-04-24T05:56:48;14.30;99.90
12015;DHT22;6066;48.138;16.402;2023-04-24T05:59:15;14.30;99.90
12015;DHT22;6066;48.138;16.402;2023-04-24T06:01:42;14.40;99.90
12015;DHT22;6066;48.138;16.402;2023-04-24T06:04:09;14.40;99.90
12015;DHT22;6066;48.138;16.402;2023-04-24T06:06:36;14.40;99.90
12015;DHT22;6066;48.138;16.402;2023-04-24T06:09:03;14.40;99.90
12015;DHT22;6066;48.138;16.402;2023-04-24T06:11:30;14.50;99.90
12015;DHT22;6066;48.138;16.402;2023-04-24T06:13:58;14.50;99.90
12015;DHT22;6066;48.138;16.402;2023-04-24T06:16:25;14.50;99.90
12015;DHT22;6066;48.138;16.402;2023-04-24T06:18:51;14.60;99.90
12015;DHT22;6066;48.138;16.402;2023-04-24T06:21:18;14.70;99.90
12015;DHT22;6066;48.138;16.402;2023-04-24T06:23:45;14.60;99.90
12015;DHT22;6066;48.138;16.402;2023-04-24T06:26:12;14.60;99.90
12015;DHT22;6066;48.138;16.402;2023-04-24T06:28:39;14.60;99.90
12015;DHT22;6066;48.138;16.402;2023-04-24T06:31:07;14.60;99.90
12015;DHT22;6066;48.138;16.402;2023-04-24T06:33:34;14.60;99.90
12015;DHT22;6066;48.138;16.402;2023-04-24T06:36:01;14.60;99.90
12015;DHT22;6066;48.138;16.402;2023-04-24T06:38:29;14.60;99.90
12015;DHT22;6066;48.138;16.402;2023-04-24T06:40:56;14.60;99.90
12015;DHT22;6066;48.138;16.402;2023-04-24T06:43:22;14.70;99.90
12015;DHT22;6066;48.138;16.402;2023-04-24T06:45:49;14.80;99.90
12015;DHT22;6066;48.138;16.402;2023-04-24T06:48:17;14.80;99.90
12015;DHT22;6066;48.138;16.402;2023-04-24T06:50:44;14.80;99.90
12015;DHT22;6066;48.138;16.402;2023-04-24T06:53:12;14.90;99.90
12015;DHT22;6066;48.138;16.402;2023-04-24T06:55:39;15.00;99.90
12015;DHT22;6066;48.138;16.402;2023-04-24T06:58:06;15.00;99.90
12015;DHT22;6066;48.138;16.402;2023-04-24T07:00:33;15.00;99.90
12015;DHT22;6066;48.138;16.402;2023-04-24T07:02:59;15.00;99.90
12015;DHT22;6066;48.138;16.402;2023-04-24T07:05:28;15.00;99.90
12015;DHT22;6066;48.138;16.402;2023-04-24T07:07:55;14.90;99.90
12015;DHT22;6066;48.138;16.402;2023-04-24T07:10:23;14.90;99.90
12015;DHT22;6066;48.138;16.402;2023-04-24T07:12:52;14.90;99.90
12015;DHT22;6066;48.138;16.402;2023-04-24T07:15:19;14.90;99.90
12015;DHT22;6066;48.138;16.402;2023-04-24T07:17:46;14.90;99.90
12015;DHT22;6066;48.138;16.402;2023-04-24T07:20:12;14.90;99.90
12015;DHT22;6066;48.138;16.402;2023-04-24T07:22:42;14.90;99.90
12015;DHT22;6066;48.138;16.402;2023-04-24T07:25:09;14.90;99.90
12015;DHT22;6066;48.138;16.402;2023-04-24T07:27:36;15.00;99.90
12015;DHT22;6066;48.138;16.402;2023-04-24T07:30:03;15.00;99.90
12015;DHT22;6066;48.138;16.402;2023-04-24T07:32:30;15.10;99.90
12015;DHT22;6066;48.138;16.402;2023-04-24T07:34:56;15.10;99.90
12015;DHT22;6066;48.138;16.402;2023-04-24T07:37:23;15.20;99.90
12015;DHT22;6066;48.138;16.402;2023-04-24T07:39:51;15.30;99.90
12015;DHT22;6066;48.138;16.402;2023-04-24T07:42:18;15.30;99.90
12015;DHT22;6066;48.138;16.402;2023-04-24T07:44:44;15.40;99.90
12015;DHT22;6066;48.138;16.402;2023-04-24T07:47:12;15.40;99.90
12015;DHT22;6066;48.138;16.402;2023-04-24T07:49:40;15.30;99.90
12015;DHT22;6066;48.138;16.402;2023-04-24T07:52:07;15.30;99.90
12015;DHT22;6066;48.138;16.402;2023-04-24T07:54:34;15.30;99.90
12015;DHT22;6066;48.138;16.402;2023-04-24T07:57:02;15.20;99.90
12015;DHT22;6066;48.138;16.402;2023-04-24T07:59:29;15.10;99.90
12015;DHT22;6066;48.138;16.402;2023-04-24T08:01:55;15.10;99.90
12015;DHT22;6066;48.138;16.402;2023-04-24T08:04:22;14.90;99.90
12015;DHT22;6066;48.138;16.402;2023-04-24T08:06:49;14.90;99.90
12015;DHT22;6066;48.138;16.402;2023-04-24T08:09:15;14.80;99.90
12015;DHT22;6066;48.138;16.402;2023-04-24T08:11:42;14.60;99.90
12015;DHT22;6066;48.138;16.402;2023-04-24T08:14:11;14.60;99.90
12015;DHT22;6066;48.138;16.402;2023-04-24T08:16:38;14.50;99.90
12015;DHT22;6066;48.138;16.402;2023-04-24T08:19:05;14.40;99.90
12015;DHT22;6066;48.138;16.402;2023-04-24T08:21:31;14.40;99.90
12015;DHT22;6066;48.138;16.402;2023-04-24T08:23:58;14.40;99.90
12015;DHT22;6066;48.138;16.402;2023-04-24T08:26:25;14.30;99.90
12015;DHT22;6066;48.138;16.402;2023-04-24T08:28:52;14.30;99.90
12015;DHT22;6066;48.138;16.402;2023-04-24T08:31:20;14.30;99.90
12015;DHT22;6066;48.138;16.402;2023-04-24T08:33:48;14.30;99.90
12015;DHT22;6066;48.138;16.402;2023-04-24T08:36:14;14.30;99.90
12015;DHT22;6066;48.138;16.402;2023-04-24T08:38:41;14.20;99.90
12015;DHT22;6066;48.138;16.402;2023-04-24T08:41:08;14.10;99.90
12015;DHT22;6066;48.138;16.402;2023-04-24T08:43:35;13.90;99.90
12015;DHT22;6066;48.138;16.402;2023-04-24T08:46:03;13.70;99.90
12015;DHT22;6066;48.138;16.402;2023-04-24T08:48:31;13.40;99.90
12015;DHT22;6066;48.138;16.402;2023-04-24T08:50:58;13.20;99.90
12015;DHT22;6066;48.138;16.402;2023-04-24T08:53:26;12.90;99.90
12015;DHT22;6066;48.138;16.402;2023-04-24T08:55:53;12.80;99.90
12015;DHT22;6066;48.138;16.402;2023-04-24T08:58:21;12.60;99.90
12015;DHT22;6066;48.138;16.402;2023-04-24T09:00:48;12.50;99.90
12015;DHT22;6066;48.138;16.402;2023-04-24T09:03:15;12.50;99.90
12015;DHT22;6066;48.138;16.402;2023-04-24T09:05:44;12.50;99.90
12015;DHT22;6066;48.138;16.402;2023-04-24T09:08:12;12.50;99.90
12015;DHT22;6066;48.138;16.402;2023-04-24T09:10:40;12.50;99.90
12015;DHT22;6066;48.138;16.402;2023-04-24T09:13:06;12.60;99.90
12015;DHT22;6066;48.138;16.402;2023-04-24T09:15:34;12.60;99.90
12015;DHT22;6066;48.138;16.402;2023-04-24T09:18:01;12.60;99.90
12015;DHT22;6066;48.138;16.402;2023-04-24T09:20:28;12.60;99.90
12015;DHT22;6066;48.138;16.402;2023-04-24T09:22:56;12.70;99.90
12015;DHT22;6066;48.138;16.402;2023-04-24T09:25:24;12.70;99.90
12015;DHT22;6066;48.138;16.402;2023-04-24T09:27:53;12.70;99.90
12015;DHT22;6066;48.138;16.402;2023-04-24T09:30:20;12.80;99.90
12015;DHT22;6066;48.138;16.402;2023-04-24T09:32:47;12.80;99.90
12015;DHT22;6066;48.138;16.402;2023-04-24T09:35:14;12.70;99.90
12015;DHT22;6066;48.138;16.402;2023-04-24T09:37:42;12.70;99.90
12015;DHT22;6066;48.138;16.402;2023-04-24T09:40:11;12.80;99.90
12015;DHT22;6066;48.138;16.402;2023-04-24T09:42:38;12.70;99.90
12015;DHT22;6066;48.138;16.402;2023-04-24T09:45:08;12.80;99.90
12015;DHT22;6066;48.138;16.402;2023-04-24T09:47:35;12.80;99.90
12015;DHT22;6066;48.138;16.402;2023-04-24T09:50:08;12.80;99.90
12015;DHT22;6066;48.138;16.402;2023-04-24T09:52:35;12.90;99.90
12015;DHT22;6066;48.138;16.402;2023-04-24T09:55:02;12.90;99.90
12015;DHT22;6066;48.138;16.402;2023-04-24T09:57:30;12.90;99.90
12015;DHT22;6066;48.138;16.402;2023-04-24T09:59:57;12.90;99.90
12015;DHT22;6066;48.138;16.402;2023-04-24T10:02:24;13.00;99.90
12015;DHT22;6066;48.138;16.402;2023-04-24T10:04:54;13.00;99.90
12015;DHT22;6066;48.138;16.402;2023-04-24T10:07:20;13.10;99.90
12015;DHT22;6066;48.138;16.402;2023-04-24T10:09:47;13.10;99.90
12015;DHT22;6066;48.138;16.402;2023-04-24T10:12:14;13.10;99.90
12015;DHT22;6066;48.138;16.402;2023-04-24T10:14:42;13.10;99.90
12015;DHT22;6066;48.138;16.402;2023-04-24T10:17:10;13.20;99.90
12015;DHT22;6066;48.138;16.402;2023-04-24T10:19:37;13.20;99.90
12015;DHT22;6066;48.138;16.402;2023-04-24T10:22:05;13.20;99.90
12015;DHT22;6066;48.138;16.402;2023-04-24T10:24:33;13.20;99.90
12015;DHT22;6066;48.138;16.402;2023-04-24T10:27:00;13.20;99.90
12015;DHT22;6066;48.138;16.402;2023-04-24T10:29:27;13.10;99.90
12015;DHT22;6066;48.138;16.402;2023-04-24T10:31:57;13.10;99.90
12015;DHT22;6066;48.138;16.402;2023-04-24T10:34:23;13.00;99.90
12015;DHT22;6066;48.138;16.402;2023-04-24T10:36:51;13.00;99.90
12015;DHT22;6066;48.138;16.402;2023-04-24T10:39:18;13.00;99.90
12015;DHT22;6066;48.138;16.402;2023-04-24T10:41:45;13.00;99.90
12015;DHT22;6066;48.138;16.402;2023-04-24T10:44:13;12.90;99.90
12015;DHT22;6066;48.138;16.402;2023-04-24T10:46:42;12.90;99.90
12015;DHT22;6066;48.138;16.402;2023-04-24T10:49:11;12.90;99.90
12015;DHT22;6066;48.138;16.402;2023-04-24T10:51:45;12.90;99.90
12015;DHT22;6066;48.138;16.402;2023-04-24T10:54:22;12.90;99.90
12015;DHT22;6066;48.138;16.402;2023-04-24T10:56:49;12.90;99.90
12015;DHT22;6066;48.138;16.402;2023-04-24T10:59:23;12.90;99.90
12015;DHT22;6066;48.138;16.402;2023-04-24T11:01:52;12.90;99.90
12015;DHT22;6066;48.138;16.402;2023-04-24T11:04:29;12.90;99.90
12015;DHT22;6066;48.138;16.402;2023-04-24T11:06:57;12.90;99.90
12015;DHT22;6066;48.138;16.402;2023-04-24T11:09:26;12.90;99.90
12015;DHT22;6066;48.138;16.402;2023-04-24T11:12:02;13.00;99.90
12015;DHT22;6066;48.138;16.402;2023-04-24T11:14:29;13.00;99.90
12015;DHT22;6066;48.138;16.402;2023-04-24T11:16:56;13.10;99.90
12015;DHT22;6066;48.138;16.402;2023-04-24T11:19:23;13.10;99.90
12015;DHT22;6066;48.138;16.402;2023-04-24T11:21:55;13.10;99.90
12015;DHT22;6066;48.138;16.402;2023-04-24T11:24:23;13.00;99.90
12015;DHT22;6066;48.138;16.402;2023-04-24T11:26:51;13.00;99.90
12015;DHT22;6066;48.138;16.402;2023-04-24T11:29:18;13.00;99.90
12015;DHT22;6066;48.138;16.402;2023-04-24T11:31:45;13.00;99.90
12015;DHT22;6066;48.138;16.402;2023-04-24T11:34:15;13.00;99.90
12015;DHT22;6066;48.138;16.402;2023-04-24T11:36:43;13.00;99.90
12015;DHT22;6066;48.138;16.402;2023-04-24T11:39:11;13.00;99.90
12015;DHT22;6066;48.138;16.402;2023-04-24T11:41:38;13.10;99.90
12015;DHT22;6066;48.138;16.402;2023-04-24T11:44:06;13.20;99.90
12015;DHT22;6066;48.138;16.402;2023-04-24T11:46:32;13.20;99.90
12015;DHT22;6066;48.138;16.402;2023-04-24T11:48:59;13.40;99.90
12015;DHT22;6066;48.138;16.402;2023-04-24T11:51:26;13.50;99.90
12015;DHT22;6066;48.138;16.402;2023-04-24T11:53:53;13.50;99.90
12015;DHT22;6066;48.138;16.402;2023-04-24T11:56:22;13.60;99.90
12015;DHT22;6066;48.138;16.402;2023-04-24T11:58:51;13.70;99.90
12015;DHT22;6066;48.138;16.402;2023-04-24T12:01:18;13.60;99.90
12015;DHT22;6066;48.138;16.402;2023-04-24T12:03:47;13.70;99.90
12015;DHT22;6066;48.138;16.402;2023-04-24T12:06:13;13.70;99.90
12015;DHT22;6066;48.138;16.402;2023-04-24T12:08:40;13.70;99.90
12015;DHT22;6066;48.138;16.402;2023-04-24T12:11:07;13.60;99.90
12015;DHT22;6066;48.138;16.402;2023-04-24T12:13:35;13.60;99.90
12015;DHT22;6066;48.138;16.402;2023-04-24T12:16:02;13.60;99.90
12015;DHT22;6066;48.138;16.402;2023-04-24T12:18:30;13.70;99.90
12015;DHT22;6066;48.138;16.402;2023-04-24T12:23:38;13.70;99.90
12015;DHT22;6066;48.138;16.402;2023-04-24T12:26:04;13.70;99.90
12015;DHT22;6066;48.138;16.402;2023-04-24T12:28:35;13.80;99.90
12015;DHT22;6066;48.138;16.402;2023-04-24T12:31:03;13.90;99.90
12015;DHT22;6066;48.138;16.402;2023-04-24T12:33:32;14.00;99.90
12015;DHT22;6066;48.138;16.402;2023-04-24T12:35:59;14.00;99.90
12015;DHT22;6066;48.138;16.402;2023-04-24T12:38:28;14.00;99.90
12015;DHT22;6066;48.138;16.402;2023-04-24T12:41:02;14.10;99.90
12015;DHT22;6066;48.138;16.402;2023-04-24T12:43:30;14.10;99.90
12015;DHT22;6066;48.138;16.402;2023-04-24T12:45:58;14.10;99.90
12015;DHT22;6066;48.138;16.402;2023-04-24T12:48:25;14.10;99.90
12015;DHT22;6066;48.138;16.402;2023-04-24T12:50:53;14.20;99.90
12015;DHT22;6066;48.138;16.402;2023-04-24T12:53:20;14.20;99.90
12015;DHT22;6066;48.138;16.402;2023-04-24T12:55:47;14.30;99.90
12015;DHT22;6066;48.138;16.402;2023-04-24T12:58:18;14.30;99.90
12015;DHT22;6066;48.138;16.402;2023-04-24T13:00:45;14.20;99.90
12015;DHT22;6066;48.138;16.402;2023-04-24T13:03:13;14.20;99.90
12015;DHT22;6066;48.138;16.402;2023-04-24T13:05:40;14.10;99.90
12015;DHT22;6066;48.138;16.402;2023-04-24T13:08:07;14.10;99.90
12015;DHT22;6066;48.138;16.402;2023-04-24T13:10:34;13.90;99.90
12015;DHT22;6066;48.138;16.402;2023-04-24T13:13:00;13.90;99.90
12015;DHT22;6066;48.138;16.402;2023-04-24T13:15:27;13.80;99.90
12015;DHT22;6066;48.138;16.402;2023-04-24T13:17:54;13.60;99.90
12015;DHT22;6066;48.138;16.402;2023-04-24T13:20:22;13.60;99.90
12015;DHT22;6066;48.138;16.402;2023-04-24T13:22:49;13.40;99.90
12015;DHT22;6066;48.138;16.402;2023-04-24T13:25:15;13.40;99.90
12015;DHT22;6066;48.138;16.402;2023-04-24T13:27:43;13.30;99.90
12015;DHT22;6066;48.138;16.402;2023-04-24T13:30:10;13.20;99.90
12015;DHT22;6066;48.138;16.402;2023-04-24T13:32:37;13.20;99.90
12015;DHT22;6066;48.138;16.402;2023-04-24T13:35:04;13.30;99.90
12015;DHT22;6066;48.138;16.402;2023-04-24T13:37:32;13.40;99.90
12015;DHT22;6066;48.138;16.402;2023-04-24T13:39:58;13.40;99.90
12015;DHT22;6066;48.138;16.402;2023-04-24T13:42:25;13.40;99.90
12015;DHT22;6066;48.138;16.402;2023-04-24T13:44:52;13.40;99.90
12015;DHT22;6066;48.138;16.402;2023-04-24T13:47:19;13.40;99.90
12015;DHT22;6066;48.138;16.402;2023-04-24T13:49:46;13.40;99.90
12015;DHT22;6066;48.138;16.402;2023-04-24T13:52:12;13.40;99.90
12015;DHT22;6066;48.138;16.402;2023-04-24T13:54:40;13.50;99.90
12015;DHT22;6066;48.138;16.402;2023-04-24T13:57:07;13.60;99.90
12015;DHT22;6066;48.138;16.402;2023-04-24T13:59:34;13.60;99.90
12015;DHT22;6066;48.138;16.402;2023-04-24T14:02:00;13.50;99.90
12015;DHT22;6066;48.138;16.402;2023-04-24T14:04:27;13.30;99.90
12015;DHT22;6066;48.138;16.402;2023-04-24T14:06:54;13.20;99.90
12015;DHT22;6066;48.138;16.402;2023-04-24T14:09:20;13.00;99.90
12015;DHT22;6066;48.138;16.402;2023-04-24T14:11:48;12.80;99.90
12015;DHT22;6066;48.138;16.402;2023-04-24T14:14:16;12.70;99.90
12015;DHT22;6066;48.138;16.402;2023-04-24T14:16:42;12.60;99.90
12015;DHT22;6066;48.138;16.402;2023-04-24T14:19:09;12.50;99.90
12015;DHT22;6066;48.138;16.402;2023-04-24T14:21:36;12.50;99.90
12015;DHT22;6066;48.138;16.402;2023-04-24T14:24:02;12.40;99.90
12015;DHT22;6066;48.138;16.402;2023-04-24T14:26:29;12.40;99.90
12015;DHT22;6066;48.138;16.402;2023-04-24T14:28:57;12.50;99.90
12015;DHT22;6066;48.138;16.402;2023-04-24T14:31:24;12.50;99.90
12015;DHT22;6066;48.138;16.402;2023-04-24T14:33:51;12.50;99.90
12015;DHT22;6066;48.138;16.402;2023-04-24T14:36:18;12.50;99.90
12015;DHT22;6066;48.138;16.402;2023-04-24T14:38:45;12.50;99.90
12015;DHT22;6066;48.138;16.402;2023-04-24T14:41:11;12.40;99.90
12015;DHT22;6066;48.138;16.402;2023-04-24T14:43:38;12.40;99.90
12015;DHT22;6066;48.138;16.402;2023-04-24T14:46:07;12.30;99.90
12015;DHT22;6066;48.138;16.402;2023-04-24T14:48:33;12.40;99.90
12015;DHT22;6066;48.138;16.402;2023-04-24T14:51:00;12.30;99.90
12015;DHT22;6066;48.138;16.402;2023-04-24T14:53:27;12.20;99.90
12015;DHT22;6066;48.138;16.402;2023-04-24T14:55:53;12.20;99.90
12015;DHT22;6066;48.138;16.402;2023-04-24T14:58:20;12.10;99.90
12015;DHT22;6066;48.138;16.402;2023-04-24T15:00:47;12.10;99.90
12015;DHT22;6066;48.138;16.402;2023-04-24T15:03:16;12.00;99.90
12015;DHT22;6066;48.138;16.402;2023-04-24T15:05:43;12.00;99.90
12015;DHT22;6066;48.138;16.402;2023-04-24T15:08:10;12.00;99.90
12015;DHT22;6066;48.138;16.402;2023-04-24T15:10:36;12.00;99.90
12015;DHT22;6066;48.138;16.402;2023-04-24T15:13:03;12.00;99.90
12015;DHT22;6066;48.138;16.402;2023-04-24T15:15:30;12.00;99.90
12015;DHT22;6066;48.138;16.402;2023-04-24T15:17:56;12.00;99.90
12015;DHT22;6066;48.138;16.402;2023-04-24T15:20:24;12.00;99.90
12015;DHT22;6066;48.138;16.402;2023-04-24T15:22:51;12.00;99.90
12015;DHT22;6066;48.138;16.402;2023-04-24T15:25:18;12.00;99.90
12015;DHT22;6066;48.138;16.402;2023-04-24T15:27:45;11.90;99.90
12015;DHT22;6066;48.138;16.402;2023-04-24T15:30:12;12.00;99.90
12015;DHT22;6066;48.138;16.402;2023-04-24T15:32:38;12.00;99.90